createdAt,value
2023-12-30T00:01:54.532Z,48.13
2023-12-30T00:04:23.881Z,48.01
2023-12-30T00:06:52.455Z,47.65
2023-12-30T00:09:20.072Z,47.88
2023-12-30T00:11:47.658Z,48.03
2023-12-30T00:14:15.501Z,47.98
2023-12-30T00:16:43.099Z,47.30
2023-12-30T00:19:10.776Z,47.61
2023-12-30T00:21:39.943Z,47.90
2023-12-30T00:24:07.719Z,47.93
2023-12-30T00:26:35.231Z,47.99
2023-12-30T00:29:09.776Z,47.94
2023-12-30T00:31:37.403Z,47.97
2023-12-30T00:34:05.066Z,47.75
2023-12-30T00:36:32.775Z,47.69
2023-12-30T00:39:01.753Z,47.50
2023-12-30T00:41:29.418Z,47.36
2023-12-30T00:43:56.983Z,47.24
2023-12-30T00:46:25.123Z,47.75
2023-12-30T00:48:57.307Z,47.44
2023-12-30T00:51:27.099Z,47.77
2023-12-30T00:53:54.701Z,47.80
2023-12-30T00:56:23.707Z,48.10
2023-12-30T00:58:51.275Z,48.30
2023-12-30T01:01:18.973Z,48.07
2023-12-30T01:03:46.789Z,48.17
2023-12-30T01:06:14.454Z,48.25
2023-12-30T01:08:42.021Z,48.02
2023-12-30T01:11:09.582Z,48.30
2023-12-30T01:13:38.527Z,48.13
2023-12-30T01:16:07.480Z,47.92
2023-12-30T01:18:35.155Z,48.52
2023-12-30T01:21:04.765Z,48.35
2023-12-30T01:23:33.559Z,48.08
2023-12-30T01:26:01.238Z,48.25
2023-12-30T01:28:29.239Z,48.02
2023-12-30T01:30:58.286Z,47.83
2023-12-30T01:33:26.180Z,47.98
2023-12-30T01:35:53.758Z,47.87
2023-12-30T01:38:21.264Z,47.47
2023-12-30T01:40:49.171Z,48.07
2023-12-30T01:43:26.650Z,48.19
2023-12-30T01:45:55.078Z,47.71
2023-12-30T01:48:24.614Z,48.11
2023-12-30T01:50:54.309Z,48.11
2023-12-30T01:53:23.514Z,48.03
2023-12-30T01:55:52.740Z,47.55
2023-12-30T01:58:20.702Z,47.22
2023-12-30T02:00:49.618Z,47.97
2023-12-30T02:03:18.706Z,47.54
2023-12-30T02:05:48.665Z,47.91
2023-12-30T02:08:20.309Z,47.13
2023-12-30T02:10:48.278Z,48.17
2023-12-30T02:13:15.936Z,48.24
2023-12-30T02:15:43.537Z,48.02
2023-12-30T02:18:11.269Z,47.38
2023-12-30T02:20:38.893Z,47.70
2023-12-30T02:23:07.809Z,47.60
2023-12-30T02:25:35.474Z,47.92
2023-12-30T02:28:03.232Z,47.73
2023-12-30T02:30:31.896Z,46.94
2023-12-30T02:32:59.864Z,48.07
2023-12-30T02:35:28.710Z,48.06
2023-12-30T02:37:56.665Z,47.39
2023-12-30T02:40:25.619Z,47.52
2023-12-30T02:42:53.585Z,47.57
2023-12-30T02:45:21.295Z,47.47
2023-12-30T02:47:49.461Z,47.15
2023-12-30T02:50:17.113Z,47.35
2023-12-30T02:52:44.792Z,46.84
2023-12-30T02:55:12.532Z,46.74
2023-12-30T02:57:48.779Z,46.33
2023-12-30T03:00:18.746Z,46.68
2023-12-30T03:02:47.226Z,47.04
2023-12-30T03:05:15.662Z,46.94
2023-12-30T03:07:43.815Z,46.62
2023-12-30T03:10:12.900Z,46.33
2023-12-30T03:12:43.258Z,46.44
2023-12-30T03:15:11.518Z,46.04
2023-12-30T03:17:39.162Z,46.02
2023-12-30T03:20:11.021Z,46.42
2023-12-30T03:22:39.121Z,46.32
2023-12-30T03:25:07.828Z,46.05
2023-12-30T03:27:35.418Z,45.91
2023-12-30T03:30:05.390Z,46.16
2023-12-30T03:32:33.046Z,46.32
2023-12-30T03:35:00.741Z,46.45
2023-12-30T03:37:28.484Z,46.16
2023-12-30T03:39:56.233Z,46.49
2023-12-30T03:42:23.839Z,46.40
2023-12-30T03:44:51.421Z,46.70
2023-12-30T03:47:21.853Z,46.20
2023-12-30T03:49:49.671Z,46.75
2023-12-30T03:52:17.527Z,46.93
2023-12-30T03:54:45.138Z,46.92
2023-12-30T03:57:15.229Z,46.37
2023-12-30T03:59:42.806Z,46.34
2023-12-30T04:02:11.138Z,46.82
2023-12-30T04:04:42.766Z,46.40
2023-12-30T04:07:10.512Z,46.83
2023-12-30T04:09:38.082Z,46.38
2023-12-30T04:12:06.259Z,46.65
2023-12-30T04:14:34.084Z,46.75
2023-12-30T04:17:01.660Z,46.24
2023-12-30T04:19:29.384Z,46.23
2023-12-30T04:21:58.331Z,46.83
2023-12-30T04:24:25.970Z,46.80
2023-12-30T04:26:53.552Z,45.85
2023-12-30T04:29:21.328Z,46.33
2023-12-30T04:31:49.104Z,46.36
2023-12-30T04:34:16.905Z,46.22
2023-12-30T04:36:44.582Z,45.80
2023-12-30T04:39:13.432Z,46.11
2023-12-30T04:41:42.591Z,46.35
2023-12-30T04:44:10.626Z,45.62
2023-12-30T04:46:38.504Z,45.63
2023-12-30T04:49:06.156Z,45.55
2023-12-30T04:51:37.700Z,45.37
2023-12-30T04:54:05.503Z,45.88
2023-12-30T04:56:34.409Z,44.56
2023-12-30T04:59:02.017Z,45.03
2023-12-30T05:01:31.606Z,45.42
2023-12-30T05:03:59.329Z,44.90
2023-12-30T05:06:26.942Z,45.05
2023-12-30T05:08:55.090Z,44.99
2023-12-30T05:11:24.835Z,45.33
2023-12-30T05:13:53.940Z,45.26
2023-12-30T05:16:21.651Z,44.76
2023-12-30T05:18:49.381Z,44.86
2023-12-30T05:21:17.793Z,44.93
2023-12-30T05:23:45.919Z,44.78
2023-12-30T05:26:14.583Z,44.52
2023-12-30T05:28:42.528Z,44.92
2023-12-30T05:31:11.578Z,44.80
2023-12-30T05:33:39.359Z,44.83
2023-12-30T05:36:08.236Z,43.85
2023-12-30T05:38:35.831Z,44.28
2023-12-30T05:41:03.401Z,44.16
2023-12-30T05:43:31.347Z,43.77
2023-12-30T05:45:59.064Z,43.97
2023-12-30T05:48:28.313Z,44.12
2023-12-30T05:50:55.882Z,43.69
2023-12-30T05:53:23.437Z,43.80
2023-12-30T05:55:52.755Z,43.05
2023-12-30T05:58:20.472Z,44.36
2023-12-30T06:00:48.137Z,44.30
2023-12-30T06:03:15.767Z,44.07
2023-12-30T06:05:44.829Z,43.51
2023-12-30T06:08:12.582Z,44.20
2023-12-30T06:10:40.232Z,44.10
2023-12-30T06:13:07.879Z,43.86
2023-12-30T06:15:35.442Z,44.24
2023-12-30T06:18:03.167Z,44.07
2023-12-30T06:20:30.723Z,43.97
2023-12-30T06:22:59.910Z,43.58
2023-12-30T06:25:27.797Z,44.13
2023-12-30T06:27:55.391Z,44.21
2023-12-30T06:30:23.052Z,44.04
2023-12-30T06:32:50.651Z,44.32
2023-12-30T06:35:18.520Z,44.12
2023-12-30T06:37:46.143Z,43.48
2023-12-30T06:40:15.411Z,44.36
2023-12-30T06:42:46.101Z,44.09
2023-12-30T06:45:14.163Z,44.20
2023-12-30T06:47:42.935Z,43.95
2023-12-30T06:50:13.163Z,43.91
2023-12-30T06:52:40.728Z,44.17
2023-12-30T06:55:18.581Z,44.39
2023-12-30T06:57:52.239Z,44.02
2023-12-30T07:00:28.006Z,44.00
2023-12-30T07:03:03.822Z,43.75
2023-12-30T07:05:44.687Z,44.06
2023-12-30T07:08:14.246Z,43.90
2023-12-30T07:10:51.108Z,43.43
2023-12-30T07:13:24.278Z,43.94
2023-12-30T07:15:57.338Z,43.85
2023-12-30T07:18:27.833Z,43.82
2023-12-30T07:21:00.773Z,43.70
2023-12-30T07:23:37.445Z,43.86
2023-12-30T07:26:13.938Z,43.97
2023-12-30T07:28:48.759Z,44.34
2023-12-30T07:31:23.983Z,44.04
2023-12-30T07:33:55.995Z,44.40
2023-12-30T07:36:29.349Z,43.85
2023-12-30T07:39:10.658Z,44.21
2023-12-30T07:41:50.398Z,43.92
2023-12-30T07:44:57.132Z,44.30
2023-12-30T07:47:33.226Z,43.79
2023-12-30T07:50:08.774Z,44.09
2023-12-30T07:52:41.775Z,44.28
2023-12-30T07:55:24.828Z,44.79
2023-12-30T07:57:55.665Z,44.20
2023-12-30T08:00:34.787Z,44.55
2023-12-30T08:03:05.420Z,44.85
2023-12-30T08:05:57.531Z,44.95
2023-12-30T08:11:33.777Z,45.18
2023-12-30T08:14:06.647Z,44.92
2023-12-30T08:16:38.123Z,44.72
2023-12-30T08:19:05.914Z,44.79
2023-12-30T08:21:33.964Z,45.49
2023-12-30T08:24:02.608Z,44.71
2023-12-30T08:26:30.236Z,44.80
2023-12-30T08:28:57.846Z,44.55
2023-12-30T08:31:25.604Z,44.71
2023-12-30T08:33:54.552Z,44.97
2023-12-30T08:36:22.631Z,44.76
2023-12-30T08:38:50.292Z,44.89
2023-12-30T08:41:20.766Z,44.75
2023-12-30T08:43:50.293Z,44.07
2023-12-30T08:46:17.906Z,43.87
2023-12-30T08:48:45.501Z,44.43
2023-12-30T08:51:15.077Z,44.68
2023-12-30T08:53:42.692Z,44.59
2023-12-30T08:56:10.321Z,44.48
2023-12-30T08:58:38.108Z,44.51
2023-12-30T09:01:05.908Z,44.60
2023-12-30T09:03:33.639Z,44.16
2023-12-30T09:06:01.364Z,44.32
2023-12-30T09:08:30.449Z,44.41
2023-12-30T09:10:59.759Z,44.32
2023-12-30T09:13:27.420Z,43.81
2023-12-30T09:15:55.087Z,43.66
2023-12-30T09:18:22.813Z,43.84
2023-12-30T09:20:50.430Z,43.34
2023-12-30T09:23:18.363Z,43.47
2023-12-30T09:25:47.328Z,43.42
2023-12-30T09:28:15.143Z,43.19
2023-12-30T09:30:42.727Z,43.39
2023-12-30T09:33:12.239Z,43.06
2023-12-30T09:35:40.799Z,42.83
2023-12-30T09:38:08.463Z,43.05
2023-12-30T09:40:36.188Z,42.64
2023-12-30T09:43:07.141Z,43.11
2023-12-30T09:45:39.113Z,43.06
2023-12-30T09:48:08.988Z,42.93
2023-12-30T09:50:36.926Z,43.33
2023-12-30T09:53:05.190Z,42.99
2023-12-30T09:55:33.035Z,43.13
2023-12-30T09:58:02.263Z,42.51
2023-12-30T10:00:33.540Z,42.66
2023-12-30T10:03:02.936Z,42.21
2023-12-30T10:05:30.820Z,42.73
2023-12-30T10:07:59.437Z,42.00
2023-12-30T10:10:42.900Z,42.19
2023-12-30T10:13:12.991Z,42.18
2023-12-30T10:15:44.212Z,42.28
2023-12-30T10:18:14.011Z,42.42
2023-12-30T10:20:44.588Z,42.65
2023-12-30T10:23:12.700Z,42.41
2023-12-30T10:25:40.917Z,42.52
2023-12-30T10:28:09.113Z,42.41
2023-12-30T10:30:37.311Z,41.87
2023-12-30T10:33:11.209Z,42.22
2023-12-30T10:35:40.900Z,41.98
2023-12-30T10:38:11.293Z,42.05
2023-12-30T10:40:41.172Z,41.92
2023-12-30T10:43:10.616Z,42.26
2023-12-30T10:45:38.808Z,42.04
2023-12-30T10:48:09.130Z,42.16
2023-12-30T10:50:41.942Z,42.14
2023-12-30T10:53:13.509Z,41.87
2023-12-30T10:55:49.812Z,41.84
2023-12-30T10:58:20.740Z,41.92
2023-12-30T11:00:53.822Z,41.60
2023-12-30T11:03:23.239Z,42.12
2023-12-30T11:06:04.519Z,41.57
2023-12-30T11:08:32.300Z,42.24
2023-12-30T11:11:01.183Z,41.45
2023-12-30T11:13:35.929Z,41.84
2023-12-30T11:16:17.031Z,41.42
2023-12-30T11:18:50.954Z,41.69
2023-12-30T11:21:38.771Z,40.96
2023-12-30T11:24:08.318Z,41.78
2023-12-30T11:26:37.723Z,41.17
2023-12-30T11:29:06.133Z,41.54
2023-12-30T11:31:37.036Z,41.08
2023-12-30T11:34:05.691Z,41.24
2023-12-30T11:36:33.463Z,41.87
2023-12-30T11:39:04.502Z,41.70
2023-12-30T11:41:33.198Z,40.95
2023-12-30T11:44:05.427Z,41.18
2023-12-30T11:46:39.054Z,41.17
2023-12-30T11:49:07.746Z,40.61
2023-12-30T11:51:35.587Z,40.94
2023-12-30T11:54:05.231Z,41.48
2023-12-30T11:56:33.795Z,41.34
2023-12-30T11:59:01.880Z,41.05
2023-12-30T12:01:29.811Z,41.22
2023-12-30T12:03:57.668Z,40.78
2023-12-30T12:06:25.585Z,40.68
2023-12-30T12:08:53.195Z,40.81
2023-12-30T12:11:22.196Z,40.83
2023-12-30T12:13:49.986Z,40.97
2023-12-30T12:16:17.589Z,40.41
2023-12-30T12:18:46.306Z,41.38
2023-12-30T12:21:14.997Z,40.36
2023-12-30T12:23:43.506Z,40.58
2023-12-30T12:26:11.800Z,40.53
2023-12-30T12:28:41.467Z,41.08
2023-12-30T12:31:09.269Z,41.08
2023-12-30T12:33:38.409Z,41.04
2023-12-30T12:36:06.859Z,40.59
2023-12-30T12:38:34.784Z,40.72
2023-12-30T12:41:02.429Z,40.52
2023-12-30T12:43:31.295Z,40.36
2023-12-30T12:46:00.480Z,40.69
2023-12-30T12:48:28.108Z,41.71
2023-12-30T12:50:56.748Z,40.98
2023-12-30T12:53:25.026Z,40.93
2023-12-30T12:55:52.688Z,40.55
2023-12-30T12:58:20.481Z,40.56
2023-12-30T13:00:48.942Z,40.65
2023-12-30T13:03:18.305Z,40.50
2023-12-30T13:05:46.413Z,40.49
2023-12-30T13:08:15.706Z,40.24
2023-12-30T13:10:48.322Z,40.82
2023-12-30T13:13:15.979Z,40.57
2023-12-30T13:15:45.131Z,40.77
2023-12-30T13:18:14.226Z,40.40
2023-12-30T13:20:46.553Z,40.47
2023-12-30T13:23:14.976Z,40.58
2023-12-30T13:25:42.701Z,40.22
2023-12-30T13:28:12.785Z,40.26
2023-12-30T13:30:41.590Z,40.12
2023-12-30T13:33:11.769Z,39.85
2023-12-30T13:35:41.752Z,40.65
2023-12-30T13:38:13.705Z,39.49
2023-12-30T13:40:42.831Z,40.23
2023-12-30T13:43:11.733Z,40.24
2023-12-30T13:45:44.878Z,40.43
2023-12-30T13:48:46.219Z,40.19
2023-12-30T13:51:17.128Z,40.10
2023-12-30T13:53:46.197Z,40.59
2023-12-30T13:56:20.561Z,40.49
2023-12-30T13:58:50.025Z,40.28
2023-12-30T14:01:21.094Z,40.64
2023-12-30T14:03:49.140Z,40.30
2023-12-30T14:06:20.839Z,40.37
2023-12-30T14:08:50.472Z,40.26
2023-12-30T14:11:32.964Z,39.98
2023-12-30T14:14:04.171Z,40.36
2023-12-30T14:16:32.518Z,40.11
2023-12-30T14:19:00.138Z,40.16
2023-12-30T14:21:27.759Z,40.76
2023-12-30T14:23:56.618Z,40.45
2023-12-30T14:26:24.489Z,40.47
2023-12-30T14:28:52.220Z,40.64
2023-12-30T14:31:20.026Z,40.36
2023-12-30T14:33:47.753Z,40.12
2023-12-30T14:36:17.105Z,39.89
2023-12-30T14:38:44.740Z,40.63
2023-12-30T14:41:13.673Z,40.93
2023-12-30T14:43:41.526Z,40.50
2023-12-30T14:46:11.793Z,40.04
2023-12-30T14:48:39.496Z,40.30
2023-12-30T14:51:08.375Z,40.58
2023-12-30T14:53:37.401Z,40.96
2023-12-30T14:56:05.638Z,40.50
2023-12-30T14:58:34.807Z,40.59
2023-12-30T15:01:02.489Z,41.06
2023-12-30T15:03:30.251Z,40.91
2023-12-30T15:05:57.925Z,41.16
2023-12-30T15:08:25.602Z,41.24
2023-12-30T15:10:53.817Z,40.75
2023-12-30T15:13:21.498Z,40.82
2023-12-30T15:15:50.430Z,40.63
2023-12-30T15:18:18.034Z,41.28
2023-12-30T15:20:45.745Z,41.19
2023-12-30T15:23:15.953Z,41.32
2023-12-30T15:25:43.631Z,41.49
2023-12-30T15:28:11.623Z,41.31
2023-12-30T15:30:40.069Z,41.54
2023-12-30T15:33:09.491Z,40.99
2023-12-30T15:35:38.791Z,41.66
2023-12-30T15:38:06.480Z,41.48
2023-12-30T15:40:35.690Z,41.36
2023-12-30T15:43:06.345Z,41.08
2023-12-30T15:45:37.227Z,41.13
2023-12-30T15:48:08.057Z,41.31
2023-12-30T15:50:37.271Z,41.56
2023-12-30T15:53:07.039Z,41.59
2023-12-30T15:55:35.979Z,41.66
2023-12-30T15:58:04.114Z,41.25
2023-12-30T16:00:33.495Z,41.86
2023-12-30T16:03:02.716Z,41.73
2023-12-30T16:05:30.749Z,41.55
2023-12-30T16:08:00.040Z,41.91
2023-12-30T16:10:28.865Z,42.11
2023-12-30T16:12:56.563Z,42.00
2023-12-30T16:15:24.837Z,42.19
2023-12-30T16:17:52.618Z,41.88
2023-12-30T16:20:20.315Z,42.17
2023-12-30T16:22:48.029Z,42.11
2023-12-30T16:25:17.474Z,42.23
2023-12-30T16:27:46.359Z,41.88
2023-12-30T16:30:15.097Z,42.02
2023-12-30T16:32:42.977Z,42.35
2023-12-30T16:35:11.043Z,42.41
2023-12-30T16:37:38.836Z,42.20
2023-12-30T16:40:09.512Z,42.16
2023-12-30T16:42:38.964Z,42.00
2023-12-30T16:45:07.566Z,42.31
2023-12-30T16:47:37.879Z,42.76
2023-12-30T16:50:06.925Z,42.57
2023-12-30T16:52:35.070Z,42.48
2023-12-30T16:55:04.261Z,42.55
2023-12-30T16:57:32.110Z,42.59
2023-12-30T17:00:02.442Z,42.81
2023-12-30T17:02:30.068Z,42.54
2023-12-30T17:04:57.986Z,42.54
2023-12-30T17:07:27.017Z,42.65
2023-12-30T17:09:55.669Z,42.57
2023-12-30T17:12:23.250Z,42.70
2023-12-30T17:14:51.917Z,43.00
2023-12-30T17:17:20.875Z,42.94
2023-12-30T17:19:48.440Z,42.79
2023-12-30T17:22:16.130Z,42.89
2023-12-30T17:24:43.710Z,43.08
2023-12-30T17:27:11.319Z,43.36
2023-12-30T17:29:38.973Z,43.36
2023-12-30T17:32:09.192Z,43.61
2023-12-30T17:34:38.539Z,43.65
2023-12-30T17:37:06.522Z,43.72
2023-12-30T17:39:34.165Z,43.72
2023-12-30T17:42:02.431Z,43.86
2023-12-30T17:44:30.486Z,43.71
2023-12-30T17:46:58.881Z,43.47
2023-12-30T17:49:27.167Z,43.81
2023-12-30T17:51:56.075Z,43.81
2023-12-30T17:54:24.297Z,43.95
2023-12-30T17:56:52.114Z,43.80
2023-12-30T17:59:19.820Z,43.72
2023-12-30T18:01:47.412Z,43.72
2023-12-30T18:04:15.166Z,43.62
2023-12-30T18:06:42.696Z,44.09
2023-12-30T18:09:14.060Z,43.83
2023-12-30T18:11:41.629Z,44.05
2023-12-30T18:14:12.483Z,43.89
2023-12-30T18:16:40.429Z,44.05
2023-12-30T18:19:08.146Z,44.10
2023-12-30T18:21:35.835Z,44.03
2023-12-30T18:24:03.538Z,44.16
2023-12-30T18:26:32.544Z,44.11
2023-12-30T18:29:04.935Z,44.02
2023-12-30T18:31:32.666Z,44.29
2023-12-30T18:34:00.362Z,44.18
2023-12-30T18:36:28.358Z,44.50
2023-12-30T18:38:56.025Z,44.34
2023-12-30T18:41:23.576Z,44.35
2023-12-30T18:43:52.631Z,44.34
2023-12-30T18:46:20.312Z,44.57
2023-12-30T18:48:48.755Z,44.50
2023-12-30T18:51:17.032Z,44.79
2023-12-30T18:53:44.591Z,44.69
2023-12-30T18:56:12.359Z,44.61
2023-12-30T18:58:40.793Z,44.51
2023-12-30T19:01:10.447Z,44.58
2023-12-30T19:03:38.081Z,44.63
2023-12-30T19:06:05.824Z,44.66
2023-12-30T19:08:34.938Z,44.77
2023-12-30T19:11:02.457Z,44.46
2023-12-30T19:13:30.051Z,44.68
2023-12-30T19:15:57.682Z,44.63
2023-12-30T19:18:26.553Z,44.70
2023-12-30T19:20:55.589Z,44.60
2023-12-30T19:23:23.247Z,44.59
2023-12-30T19:25:51.128Z,44.77
2023-12-30T19:28:18.816Z,44.58
2023-12-30T19:30:46.464Z,44.56
2023-12-30T19:33:15.206Z,44.37
2023-12-30T19:35:44.954Z,44.67
2023-12-30T19:38:13.065Z,44.55
2023-12-30T19:40:45.942Z,44.58
2023-12-30T19:43:14.486Z,44.29
2023-12-30T19:45:42.141Z,44.15
2023-12-30T19:48:09.792Z,44.37
2023-12-30T19:50:38.074Z,44.12
2023-12-30T19:53:06.963Z,43.83
2023-12-30T19:55:34.587Z,44.22
2023-12-30T19:58:02.281Z,44.14
2023-12-30T20:00:29.848Z,44.31
2023-12-30T20:02:57.400Z,44.13
2023-12-30T20:05:25.126Z,44.29
2023-12-30T20:07:52.699Z,44.24
2023-12-30T20:10:21.647Z,44.15
2023-12-30T20:12:49.387Z,44.18
2023-12-30T20:15:17.947Z,44.27
2023-12-30T20:17:46.399Z,44.30
2023-12-30T20:20:14.206Z,44.55
2023-12-30T20:22:42.346Z,44.57
2023-12-30T20:25:10.158Z,44.42
2023-12-30T20:27:41.466Z,44.91
2023-12-30T20:30:10.307Z,44.81
2023-12-30T20:32:41.768Z,44.90
2023-12-30T20:35:09.732Z,45.08
2023-12-30T20:37:37.557Z,45.19
2023-12-30T20:40:07.178Z,44.96
2023-12-30T20:42:36.338Z,45.03
2023-12-30T20:45:06.372Z,45.31
2023-12-30T20:47:34.697Z,45.28
2023-12-30T20:50:03.905Z,45.26
2023-12-30T20:52:32.275Z,45.57
2023-12-30T20:55:14.405Z,45.50
2023-12-30T20:57:45.187Z,45.37
2023-12-30T21:00:15.490Z,45.46
2023-12-30T21:02:44.311Z,45.65
2023-12-30T21:05:11.824Z,45.79
2023-12-30T21:07:42.701Z,45.96
2023-12-30T21:10:11.624Z,46.01
2023-12-30T21:12:39.335Z,46.02
2023-12-30T21:15:07.824Z,46.09
2023-12-30T21:17:39.939Z,45.98
2023-12-30T21:20:11.001Z,46.18
2023-12-30T21:22:40.410Z,46.34
2023-12-30T21:25:16.164Z,46.33
2023-12-30T21:27:50.986Z,46.32
2023-12-30T21:30:19.030Z,46.18
2023-12-30T21:32:50.624Z,46.15
2023-12-30T21:35:19.512Z,46.26
2023-12-30T21:37:48.469Z,46.26
2023-12-30T21:40:18.760Z,46.14
2023-12-30T21:42:46.863Z,46.18
2023-12-30T21:45:14.509Z,45.95
2023-12-30T21:47:42.705Z,46.09
2023-12-30T21:50:12.079Z,46.22
2023-12-30T21:52:39.841Z,46.19
2023-12-30T21:55:09.192Z,46.12
2023-12-30T21:57:36.826Z,45.83
2023-12-30T22:00:05.700Z,45.91
2023-12-30T22:02:35.226Z,46.03
2023-12-30T22:05:03.093Z,46.27
2023-12-30T22:07:32.914Z,45.64
2023-12-30T22:10:01.128Z,46.39
2023-12-30T22:12:32.196Z,45.95
2023-12-30T22:15:00.552Z,46.03
2023-12-30T22:17:28.506Z,46.13
2023-12-30T22:19:57.630Z,46.14
2023-12-30T22:22:25.225Z,46.14
2023-12-30T22:24:54.179Z,45.91
2023-12-30T22:27:21.715Z,46.58
2023-12-30T22:29:49.606Z,46.52
2023-12-30T22:32:18.342Z,46.49
2023-12-30T22:34:45.947Z,46.47
2023-12-30T22:37:13.507Z,46.45
2023-12-30T22:39:41.072Z,46.23
2023-12-30T22:42:10.069Z,46.31
2023-12-30T22:44:38.911Z,46.52
2023-12-30T22:47:06.881Z,46.19
2023-12-30T22:49:34.485Z,46.20
2023-12-30T22:52:02.184Z,46.51
2023-12-30T22:54:29.737Z,46.49
2023-12-30T22:56:59.214Z,46.33
2023-12-30T22:59:28.032Z,46.42
2023-12-30T23:01:58.478Z,46.26
2023-12-30T23:04:26.051Z,46.64
2023-12-30T23:06:53.661Z,46.47
2023-12-30T23:09:21.652Z,46.74
2023-12-30T23:11:49.203Z,46.57
2023-12-30T23:14:16.880Z,46.78
2023-12-30T23:16:46.682Z,46.81
2023-12-30T23:19:14.267Z,46.92
2023-12-30T23:21:41.809Z,46.36
2023-12-30T23:24:09.406Z,46.74
2023-12-30T23:26:37.630Z,46.81
2023-12-30T23:29:05.161Z,46.91
2023-12-30T23:31:32.720Z,46.61
2023-12-30T23:34:01.649Z,46.76
2023-12-30T23:36:29.201Z,46.75
2023-12-30T23:38:56.781Z,46.71
2023-12-30T23:41:24.345Z,46.98
2023-12-30T23:43:53.209Z,46.82
2023-12-30T23:46:20.754Z,46.60
2023-12-30T23:48:48.362Z,46.98
2023-12-30T23:51:17.248Z,46.79
2023-12-30T23:53:44.822Z,47.06
2023-12-30T23:56:12.374Z,46.73
2023-12-30T23:58:40.000Z,46.81
